LFLCLFLB

Guest
Details From LFLC - Clermont-Ferrand_Auvergne
To LFLB - Aix-Les-Bains
Flight Number -
Tags generated
Created
Modified
Stats Distance 114 nm / 211 km
Max Altitude 11,100 ft / 3,383 m
Waypoints 3
Social Downloads 5
Likes 0
Share VATSIM

Download

Looking for another format? Having issues loading an existing format? Contact us
Advertisement - Login to hide

Notes

Basic altitude profile: - Ascent Rate: 2500ft/min - Ascent Speed: 250kts - Cruise Altitude: 35000ft - Cruise Speed: 420kts - Descent Rate: 1500ft/min - Descent Speed: 250kts Options: - Use NATs: yes - Use PACOTS: yes - Use low airways: yes - Use high airways: yes

Route

LFLC MEBAK LFLB

ID Type Via Altitude Latitude Longitude Leg Dist Tot Dist Heading (true) Name
O LFLC APT - 0 ft / 0 m 45.78671˚ 3.16997˚ - 0 nm - Clermont-Ferrand_Auvergne
MEBAK FIX - 11,100 ft / 3,383 m 45.70806˚ 4.64889˚ 62 nm 62 nm 94° / 95° -
O LFLB APT - 0 ft / 0 m 45.63623˚ 5.88090˚ 51 nm 114 nm 94° / 95° Aix-Les-Bains

Altitude Profile

Advertisement - Login to hide

LFLC

Details ICAO LFLC (CFE)
Name Clermont-Ferrand_Auvergne
Region France
Timezone Europe/Paris (UTC+1.0)
Stats Elevation 1,089 ft / 332 m (AMSL)
Location 45.786712° 3.169967°
Runways 1
Magnetic Variation 0.980° E

METAR

LFLC 160530Z AUTO 34005KT 300V010 9999 BKN022 OVC029 03/01 Q1011 TEMPO SHRA

Decode

TAF

TAF LFLC 160200Z 1603/1703 32012KT 9999 BKN030 PROB30 TEMPO 1603/1614 34012KT SHRA

Decode

Departure Runways

ID Width Length Bearing (true) Bearing (mag) Surface Threshold Offset Overrun Length
08 148 ft / 45 m 9,878 ft / 3,011 m 81.95° 80.97° Asphalt 0 ft / 0 m 0 ft / 0 m
26 148 ft / 45 m 9,878 ft / 3,011 m 261.98° 261.00° Asphalt 476 ft / 145 m 0 ft / 0 m

LFLB

Details ICAO LFLB (CMF)
Name Aix-Les-Bains
Region France
Timezone Europe/Paris (UTC+1.0)
Stats Elevation 779 ft / 237 m (AMSL)
Location 45.636234° 5.880898°
Runways 2
Magnetic Variation 1.690° E

METAR

LFLB 160530Z AUTO VRB03KT 9999 -RA SCT012 BKN020 BKN028 02/01 Q1009 TEMPO 2000 -SN BKN005

Decode

TAF

TAF LFLB 152201Z 1522/1618 CNL

Decode

Destination Runways

ID Width Length Bearing (true) Bearing (mag) Surface Threshold Offset Overrun Length
18 148 ft / 45 m 5,452 ft / 1,662 m 176.72° 175.03° Asphalt 26 ft / 8 m 774 ft / 236 m
18L 197 ft / 60 m 2,309 ft / 704 m 176.70° 175.01° Grass 0 ft / 0 m 0 ft / 0 m
36 148 ft / 45 m 5,452 ft / 1,662 m 356.72° 355.03° Asphalt 23 ft / 7 m 456 ft / 139 m
36R 197 ft / 60 m 2,309 ft / 704 m 356.70° 355.01° Grass 315 ft / 96 m 0 ft / 0 m

Approach Navaids

Runway Type Ident Frequency Range Bearing (true) Bearing (mag) Slope Elevation
18 Localiser CY 109.50 MHz 27 nm / 50 km 176.73° 175.04° - 779 ft / 237 m (AMSL)
18 Glidescope CY 109.50 MHz 27 nm / 50 km 176.73° 175.04° 4.46° 779 ft / 237 m (AMSL)
18 DME CY 109.50 MHz 27 nm / 50 km - - - 779 ft / 237 m (AMSL)

Popular Alternatives